createdAt,value
2023-01-09T00:01:34.016Z,6.10
2023-01-09T00:04:02.015Z,6.20
2023-01-09T00:06:29.320Z,6.20
2023-01-09T00:08:56.599Z,6.20
2023-01-09T00:11:23.735Z,6.30
2023-01-09T00:13:50.927Z,6.20
2023-01-09T00:16:18.543Z,6.30
2023-01-09T00:18:46.010Z,6.20
2023-01-09T00:21:14.569Z,6.30
2023-01-09T00:23:41.669Z,6.30
2023-01-09T00:26:12.910Z,6.30
2023-01-09T00:28:40.654Z,6.30
2023-01-09T00:31:09.352Z,6.30
2023-01-09T00:33:48.692Z,6.20
2023-01-09T00:36:15.845Z,6.20
2023-01-09T00:38:43.125Z,6.10
2023-01-09T00:41:15.859Z,6.20
2023-01-09T00:43:48.317Z,6.20
2023-01-09T00:46:16.925Z,6.20
2023-01-09T00:48:48.285Z,6.10
2023-01-09T00:51:17.718Z,6.20
2023-01-09T00:53:45.870Z,6.10
2023-01-09T00:56:17.697Z,6.10
2023-01-09T00:58:45.460Z,6.10
2023-01-09T01:01:12.940Z,6.00
2023-01-09T01:03:40.265Z,6.00
2023-01-09T01:06:26.605Z,6.00
2023-01-09T01:08:55.873Z,6.00
2023-01-09T01:11:24.554Z,5.90
2023-01-09T01:13:51.922Z,5.90
2023-01-09T01:16:19.439Z,5.90
2023-01-09T01:18:46.732Z,5.90
2023-01-09T01:21:15.084Z,6.00
2023-01-09T01:23:42.809Z,5.90
2023-01-09T01:26:15.974Z,5.90
2023-01-09T01:28:43.297Z,5.90
2023-01-09T01:31:17.837Z,6.00
2023-01-09T01:33:45.067Z,6.00
2023-01-09T01:36:12.430Z,6.00
2023-01-09T01:38:39.527Z,6.00
2023-01-09T01:41:07.196Z,6.10
2023-01-09T01:43:58.267Z,6.10
2023-01-09T01:46:28.266Z,6.10
2023-01-09T01:49:14.687Z,6.00
2023-01-09T01:51:47.370Z,6.00
2023-01-09T01:54:23.728Z,6.00
2023-01-09T01:56:57.029Z,6.00
2023-01-09T01:59:38.853Z,6.10
2023-01-09T02:02:06.753Z,6.10
2023-01-09T02:04:39.254Z,6.10
2023-01-09T02:07:09.901Z,6.20
2023-01-09T02:09:39.695Z,6.20
2023-01-09T02:12:25.141Z,6.10
2023-01-09T02:15:12.622Z,6.10
2023-01-09T02:18:03.011Z,6.10
2023-01-09T02:20:51.827Z,6.20
2023-01-09T02:23:27.885Z,6.20
2023-01-09T02:26:10.111Z,6.20
2023-01-09T02:28:59.197Z,6.10
2023-01-09T02:31:54.144Z,6.20
2023-01-09T02:34:48.620Z,6.30
2023-01-09T02:37:24.179Z,6.40
2023-01-09T02:40:20.725Z,6.40
2023-01-09T02:42:48.764Z,6.50
2023-01-09T02:45:16.287Z,6.50
2023-01-09T02:47:46.249Z,6.40
2023-01-09T02:50:26.114Z,6.40
2023-01-09T02:53:15.043Z,6.50
2023-01-09T02:56:09.903Z,6.40
2023-01-09T02:59:14.051Z,6.60
2023-01-09T03:01:58.489Z,6.50
2023-01-09T03:04:52.922Z,6.50
2023-01-09T03:07:33.160Z,6.50
2023-01-09T03:10:42.171Z,6.60
2023-01-09T03:13:14.784Z,6.60
2023-01-09T03:15:46.322Z,6.60
2023-01-09T03:18:15.786Z,6.50
2023-01-09T03:20:44.257Z,6.50
2023-01-09T03:23:11.460Z,6.50
2023-01-09T03:25:38.577Z,6.50
2023-01-09T03:28:10.786Z,6.50
2023-01-09T03:30:37.924Z,6.50
2023-01-09T03:33:05.031Z,6.60
2023-01-09T03:35:32.185Z,6.50
2023-01-09T03:37:59.389Z,6.40
2023-01-09T03:40:26.568Z,6.40
2023-01-09T03:42:53.729Z,6.40
2023-01-09T03:45:20.872Z,6.40
2023-01-09T03:47:48.023Z,6.40
2023-01-09T03:50:15.860Z,6.40
2023-01-09T03:52:43.026Z,6.50
2023-01-09T03:55:10.180Z,6.40
2023-01-09T03:57:37.336Z,6.50
2023-01-09T04:00:05.233Z,6.40
2023-01-09T04:02:39.552Z,6.40
2023-01-09T04:05:07.925Z,6.40
2023-01-09T04:07:35.127Z,6.50
2023-01-09T04:10:02.318Z,6.30
2023-01-09T04:12:29.523Z,6.30
2023-01-09T04:14:56.679Z,6.30
2023-01-09T04:17:23.922Z,6.30
2023-01-09T04:19:51.086Z,6.30
2023-01-09T04:22:18.170Z,6.30
2023-01-09T04:24:45.313Z,6.30
2023-01-09T04:27:13.092Z,6.30
2023-01-09T04:29:40.205Z,6.30
2023-01-09T04:32:07.510Z,6.20
2023-01-09T04:34:34.565Z,6.20
2023-01-09T04:37:01.738Z,6.20
2023-01-09T04:39:28.939Z,6.20
2023-01-09T04:41:56.077Z,6.20
2023-01-09T04:44:26.443Z,6.30
2023-01-09T04:46:55.869Z,6.20
2023-01-09T04:49:23.623Z,6.20
2023-01-09T04:51:51.028Z,6.20
2023-01-09T04:54:18.664Z,6.10
2023-01-09T04:56:46.012Z,6.10
2023-01-09T04:59:13.277Z,6.10
2023-01-09T05:01:40.544Z,6.10
2023-01-09T05:04:08.655Z,6.10
2023-01-09T05:06:36.147Z,6.10
2023-01-09T05:09:03.649Z,6.00
2023-01-09T05:11:30.768Z,6.10
2023-01-09T05:13:57.939Z,6.20
2023-01-09T05:16:25.133Z,6.20
2023-01-09T05:18:56.628Z,6.20
2023-01-09T05:21:27.603Z,6.20
2023-01-09T05:23:54.770Z,6.20
2023-01-09T05:26:25.559Z,6.20
2023-01-09T05:28:54.261Z,6.30
2023-01-09T05:31:21.542Z,6.20
2023-01-09T05:33:48.953Z,6.10
2023-01-09T05:36:16.457Z,6.10
2023-01-09T05:38:43.749Z,6.00
2023-01-09T05:41:11.115Z,5.90
2023-01-09T05:43:38.295Z,5.80
2023-01-09T05:46:05.592Z,5.80
2023-01-09T05:48:32.858Z,5.80
2023-01-09T05:51:00.046Z,5.80
2023-01-09T05:53:27.269Z,5.70
2023-01-09T05:55:54.356Z,5.70
2023-01-09T05:58:21.541Z,5.60
2023-01-09T06:00:49.508Z,5.50
2023-01-09T06:03:16.679Z,5.60
2023-01-09T06:05:43.809Z,5.60
2023-01-09T06:08:10.985Z,5.70
2023-01-09T06:10:41.047Z,5.70
2023-01-09T06:13:08.153Z,5.70
2023-01-09T06:15:35.346Z,5.80
2023-01-09T06:18:02.742Z,5.80
2023-01-09T06:20:30.267Z,5.80
2023-01-09T06:22:57.518Z,5.90
2023-01-09T06:25:24.784Z,6.00
2023-01-09T06:27:52.331Z,6.00
2023-01-09T06:30:20.466Z,6.00
2023-01-09T06:32:51.008Z,6.10
2023-01-09T06:35:21.050Z,6.10
2023-01-09T06:37:51.551Z,6.10
2023-01-09T06:40:21.132Z,6.20
2023-01-09T06:42:49.974Z,6.20
2023-01-09T06:45:17.833Z,6.30
2023-01-09T06:47:45.269Z,6.30
2023-01-09T06:50:12.728Z,6.10
2023-01-09T06:52:40.518Z,6.20
2023-01-09T06:55:08.807Z,6.30
2023-01-09T06:57:36.131Z,6.30
2023-01-09T07:00:04.427Z,6.40
2023-01-09T07:02:31.580Z,6.40
2023-01-09T07:04:58.804Z,6.40
2023-01-09T07:07:28.858Z,6.40
2023-01-09T07:09:56.074Z,6.50
2023-01-09T07:12:23.227Z,6.40
2023-01-09T07:14:50.524Z,6.40
2023-01-09T07:17:17.765Z,6.50
2023-01-09T07:19:44.941Z,6.40
2023-01-09T07:22:12.737Z,6.50
2023-01-09T07:24:39.891Z,6.40
2023-01-09T07:27:06.954Z,6.30
2023-01-09T07:29:34.068Z,6.30
2023-01-09T07:32:01.149Z,6.30
2023-01-09T07:34:28.232Z,6.30
2023-01-09T07:36:55.444Z,6.30
2023-01-09T07:39:22.678Z,6.30
2023-01-09T07:41:49.887Z,6.30
2023-01-09T07:44:17.142Z,6.40
2023-01-09T07:46:44.505Z,6.50
2023-01-09T07:49:11.634Z,6.50
2023-01-09T07:51:43.094Z,6.40
2023-01-09T07:54:12.692Z,6.30
2023-01-09T07:56:41.057Z,6.40
2023-01-09T07:59:08.650Z,6.40
2023-01-09T08:01:36.010Z,6.50
2023-01-09T08:04:03.722Z,6.50
2023-01-09T08:06:31.620Z,6.50
2023-01-09T08:09:00.219Z,6.50
2023-01-09T08:11:27.505Z,6.50
2023-01-09T08:13:54.830Z,6.60
2023-01-09T08:16:22.058Z,6.60
2023-01-09T08:18:49.281Z,6.70
2023-01-09T08:21:16.451Z,6.70
2023-01-09T08:23:45.506Z,6.80
2023-01-09T08:26:12.741Z,6.80
2023-01-09T08:28:40.041Z,6.90
2023-01-09T08:31:07.221Z,6.90
2023-01-09T08:33:34.452Z,7.10
2023-01-09T08:36:01.726Z,7.00
2023-01-09T08:38:29.124Z,7.10
2023-01-09T08:40:56.224Z,7.10
2023-01-09T08:43:42.450Z,7.10
2023-01-09T08:46:46.615Z,7.30
2023-01-09T08:49:13.751Z,7.70
2023-01-09T08:51:40.868Z,8.00
2023-01-09T08:54:08.008Z,8.30
2023-01-09T08:56:35.094Z,8.40
2023-01-09T08:59:02.404Z,8.50
2023-01-09T09:01:29.596Z,8.60
2023-01-09T09:03:56.795Z,8.60
2023-01-09T09:06:23.907Z,8.60
2023-01-09T09:08:51.019Z,8.70
2023-01-09T09:11:18.152Z,8.70
2023-01-09T09:13:45.322Z,8.80
2023-01-09T09:16:12.476Z,8.80
2023-01-09T09:18:39.627Z,8.80
2023-01-09T09:21:06.772Z,8.80
2023-01-09T09:23:33.894Z,8.80
2023-01-09T09:26:00.966Z,8.90
2023-01-09T09:28:28.157Z,8.80
2023-01-09T09:30:55.174Z,8.80
2023-01-09T09:33:22.664Z,8.80
2023-01-09T09:35:49.787Z,8.90
2023-01-09T09:38:17.265Z,8.80
2023-01-09T09:41:35.726Z,8.90
2023-01-09T09:44:48.446Z,9.00
2023-01-09T09:47:40.510Z,9.10
2023-01-09T09:51:02.647Z,9.30
2023-01-09T09:53:59.958Z,9.30
2023-01-09T09:56:31.321Z,9.30
2023-01-09T09:59:16.146Z,9.40
2023-01-09T10:02:56.081Z,9.50
2023-01-09T10:05:44.443Z,9.50
2023-01-09T10:08:55.702Z,9.50
2023-01-09T10:11:52.213Z,9.50
2023-01-09T10:14:24.433Z,9.60
2023-01-09T10:17:35.683Z,9.80
2023-01-09T10:20:21.701Z,9.70
2023-01-09T10:23:13.370Z,9.50
2023-01-09T10:25:52.716Z,9.50
2023-01-09T10:28:42.115Z,9.40
2023-01-09T10:32:12.054Z,9.40
2023-01-09T10:35:20.061Z,9.30
2023-01-09T10:37:53.518Z,9.20
2023-01-09T10:40:39.788Z,9.00
2023-01-09T10:43:23.623Z,9.10
2023-01-09T10:45:54.794Z,8.90
2023-01-09T10:48:37.124Z,8.50
2023-01-09T10:51:21.958Z,8.40
2023-01-09T10:53:55.404Z,8.20
2023-01-09T10:56:37.922Z,8.30
2023-01-09T10:59:05.058Z,8.30
2023-01-09T11:01:38.252Z,8.40
2023-01-09T11:04:30.414Z,8.50
2023-01-09T11:07:20.432Z,8.50
2023-01-09T11:10:08.243Z,8.60
2023-01-09T11:12:36.284Z,8.70
2023-01-09T11:15:19.589Z,8.80
2023-01-09T11:17:50.729Z,8.90
2023-01-09T11:20:32.130Z,9.10
2023-01-09T11:23:00.127Z,9.00
2023-01-09T11:25:29.229Z,9.00
2023-01-09T11:28:02.457Z,9.10
2023-01-09T11:30:38.288Z,9.10
2023-01-09T11:33:20.683Z,9.20
2023-01-09T11:35:57.626Z,9.20
2023-01-09T11:38:24.863Z,9.20
2023-01-09T11:40:58.576Z,9.30
2023-01-09T11:43:39.573Z,9.30
2023-01-09T11:46:15.028Z,9.40
2023-01-09T11:48:59.406Z,9.50
2023-01-09T11:51:35.698Z,9.40
2023-01-09T11:54:26.610Z,9.40
2023-01-09T11:56:54.722Z,9.50
2023-01-09T11:59:31.551Z,9.70
2023-01-09T12:02:34.995Z,10.80
2023-01-09T12:05:49.996Z,11.50
2023-01-09T12:08:29.525Z,12.40
2023-01-09T12:11:40.713Z,13.50
2023-01-09T12:14:29.058Z,13.30
2023-01-09T12:17:05.254Z,12.50
2023-01-09T12:19:56.567Z,12.60
2023-01-09T12:22:49.157Z,12.20
2023-01-09T12:25:29.226Z,11.90
2023-01-09T12:28:52.220Z,11.80
2023-01-09T12:31:33.939Z,11.70
2023-01-09T12:34:36.143Z,12.80
2023-01-09T12:37:38.666Z,14.10
2023-01-09T12:41:02.634Z,14.00
2023-01-09T12:44:09.788Z,13.10
2023-01-09T12:47:25.098Z,13.40
2023-01-09T12:50:41.054Z,14.00
2023-01-09T12:54:10.944Z,13.00
2023-01-09T12:57:02.417Z,11.60
2023-01-09T12:59:49.259Z,11.50
2023-01-09T13:02:23.560Z,11.00
2023-01-09T13:05:27.195Z,11.10
2023-01-09T13:08:13.367Z,11.50
2023-01-09T13:11:08.566Z,12.10
2023-01-09T13:14:20.633Z,11.80
2023-01-09T13:16:53.487Z,11.80
2023-01-09T13:19:31.883Z,11.30
2023-01-09T13:22:06.051Z,10.90
2023-01-09T13:25:04.741Z,10.40
2023-01-09T13:27:41.605Z,10.30
2023-01-09T13:30:21.368Z,10.10
2023-01-09T13:33:17.848Z,10.00
2023-01-09T13:35:58.945Z,10.00
2023-01-09T13:38:31.004Z,9.80
2023-01-09T13:41:37.375Z,9.90
2023-01-09T13:44:19.481Z,9.90
2023-01-09T13:46:50.693Z,9.80
2023-01-09T13:49:37.313Z,9.60
2023-01-09T13:52:32.081Z,9.60
2023-01-09T13:55:01.752Z,9.60
2023-01-09T13:57:36.178Z,9.40
2023-01-09T14:00:12.679Z,9.10
2023-01-09T14:02:41.170Z,9.20
2023-01-09T14:05:15.264Z,9.10
2023-01-09T14:07:45.592Z,9.00
2023-01-09T14:10:31.727Z,9.10
2023-01-09T14:12:59.948Z,9.20
2023-01-09T14:15:39.437Z,9.10
2023-01-09T14:18:17.165Z,9.20
2023-01-09T14:21:20.426Z,9.30
2023-01-09T14:24:06.423Z,9.30
2023-01-09T14:26:46.434Z,9.30
2023-01-09T14:29:29.290Z,9.40
2023-01-09T14:32:21.050Z,9.40
2023-01-09T14:34:55.062Z,9.20
2023-01-09T14:37:22.796Z,9.20
2023-01-09T14:39:51.781Z,9.30
2023-01-09T14:42:24.814Z,9.10
2023-01-09T14:45:06.334Z,9.00
2023-01-09T14:47:49.054Z,8.90
2023-01-09T14:50:22.535Z,8.90
2023-01-09T14:52:54.135Z,8.80
2023-01-09T14:55:26.976Z,8.80
2023-01-09T14:57:55.235Z,8.80
2023-01-09T15:00:23.361Z,8.90
2023-01-09T15:02:53.368Z,8.80
2023-01-09T15:05:26.366Z,8.80
2023-01-09T15:08:01.196Z,8.70
2023-01-09T15:10:36.392Z,8.70
2023-01-09T15:13:08.305Z,8.60
2023-01-09T15:15:36.175Z,8.60
2023-01-09T15:18:08.413Z,8.50
2023-01-09T15:20:38.893Z,8.50
2023-01-09T15:23:06.313Z,8.60
2023-01-09T15:25:40.205Z,8.60
2023-01-09T15:28:28.620Z,8.60
2023-01-09T15:31:11.270Z,8.60
2023-01-09T15:33:40.712Z,8.60
2023-01-09T15:36:31.003Z,8.40
2023-01-09T15:38:59.727Z,8.30
2023-01-09T15:41:48.309Z,8.20
2023-01-09T15:44:27.612Z,8.10
2023-01-09T15:47:01.090Z,8.00
2023-01-09T15:49:29.091Z,7.90
2023-01-09T15:51:56.615Z,7.80
2023-01-09T15:54:30.404Z,7.70
2023-01-09T15:57:35.653Z,7.60
2023-01-09T16:00:41.777Z,7.60
2023-01-09T16:03:20.169Z,7.50
2023-01-09T16:06:05.936Z,7.50
2023-01-09T16:08:41.220Z,7.50
2023-01-09T16:11:21.880Z,7.40
2023-01-09T16:13:49.338Z,7.30
2023-01-09T16:16:28.463Z,7.30
2023-01-09T16:18:57.171Z,7.20
2023-01-09T16:21:29.739Z,7.20
2023-01-09T16:24:06.532Z,7.20
2023-01-09T16:26:37.341Z,7.10
2023-01-09T16:29:31.715Z,7.10
2023-01-09T16:32:06.421Z,7.20
2023-01-09T16:34:37.268Z,7.10
2023-01-09T16:37:05.776Z,7.10
2023-01-09T16:39:32.950Z,7.00
2023-01-09T16:42:19.439Z,6.90
2023-01-09T16:44:46.612Z,6.90
2023-01-09T16:47:13.978Z,6.90
2023-01-09T16:49:41.133Z,6.80
2023-01-09T16:52:17.531Z,6.80
2023-01-09T16:54:46.958Z,6.80
2023-01-09T16:57:18.921Z,6.70
2023-01-09T16:59:46.639Z,6.70
2023-01-09T17:02:20.318Z,6.60
2023-01-09T17:04:48.098Z,6.60
2023-01-09T17:07:16.798Z,6.60
2023-01-09T17:09:45.800Z,6.60
2023-01-09T17:12:22.607Z,6.60
2023-01-09T17:14:50.394Z,6.60
2023-01-09T17:17:18.500Z,6.60
2023-01-09T17:19:48.237Z,6.60
2023-01-09T17:22:15.725Z,6.60
2023-01-09T17:25:01.854Z,6.50
2023-01-09T17:27:54.525Z,6.50
2023-01-09T17:30:22.098Z,6.40
2023-01-09T17:32:49.572Z,6.40
2023-01-09T17:35:17.028Z,6.30
2023-01-09T17:37:44.470Z,6.30
2023-01-09T17:40:23.154Z,6.20
2023-01-09T17:42:53.680Z,6.20
2023-01-09T17:45:20.971Z,6.20
2023-01-09T17:47:49.315Z,6.10
2023-01-09T17:50:22.382Z,6.10
2023-01-09T17:52:52.062Z,6.00
2023-01-09T17:55:19.214Z,5.90
2023-01-09T17:57:46.354Z,5.80
2023-01-09T18:00:30.434Z,5.70
2023-01-09T18:02:59.964Z,5.70
2023-01-09T18:05:29.134Z,5.60
2023-01-09T18:07:56.878Z,5.50
2023-01-09T18:10:28.221Z,5.40
2023-01-09T18:12:56.677Z,5.40
2023-01-09T18:15:28.506Z,5.40
2023-01-09T18:17:56.009Z,5.40
2023-01-09T18:20:26.074Z,5.30
2023-01-09T18:22:53.678Z,5.30
2023-01-09T18:25:25.859Z,5.30
2023-01-09T18:27:56.334Z,5.20
2023-01-09T18:30:23.544Z,5.20
2023-01-09T18:32:50.808Z,5.30
2023-01-09T18:35:18.074Z,5.40
2023-01-09T18:37:45.255Z,5.60
2023-01-09T18:40:12.879Z,5.70
2023-01-09T18:42:40.951Z,5.80
2023-01-09T18:45:09.182Z,5.90
2023-01-09T18:47:36.311Z,6.00
2023-01-09T18:50:03.577Z,6.10
2023-01-09T18:52:30.687Z,6.10
2023-01-09T18:54:58.015Z,6.10
2023-01-09T18:57:25.699Z,6.20
2023-01-09T18:59:52.793Z,6.20
2023-01-09T19:02:25.401Z,6.20
2023-01-09T19:04:53.067Z,6.20
2023-01-09T19:07:20.268Z,6.20
2023-01-09T19:09:47.416Z,6.20
2023-01-09T19:12:14.811Z,6.30
2023-01-09T19:14:42.124Z,6.40
2023-01-09T19:17:09.354Z,6.40
2023-01-09T19:19:36.527Z,6.50
2023-01-09T19:22:03.806Z,6.50
2023-01-09T19:24:32.941Z,6.50
2023-01-09T19:27:00.677Z,6.40
2023-01-09T19:29:28.458Z,6.40
2023-01-09T19:31:56.907Z,6.30
2023-01-09T19:34:24.376Z,6.30
2023-01-09T19:36:51.898Z,6.30
2023-01-09T19:39:19.338Z,6.30
2023-01-09T19:41:46.402Z,6.40
2023-01-09T19:44:13.722Z,6.40
2023-01-09T19:46:40.915Z,6.50
2023-01-09T19:49:08.945Z,6.40
2023-01-09T19:51:36.437Z,6.40
2023-01-09T19:56:35.691Z,6.30
2023-01-09T19:59:05.246Z,6.30
2023-01-09T20:01:39.598Z,6.30
2023-01-09T20:04:13.545Z,6.30
2023-01-09T20:06:43.970Z,6.40
2023-01-09T20:09:13.564Z,6.40
2023-01-09T20:11:41.520Z,6.50
2023-01-09T20:14:13.698Z,6.50
2023-01-09T20:16:43.083Z,6.60
2023-01-09T20:19:13.069Z,6.60
2023-01-09T20:21:40.981Z,6.60
2023-01-09T20:24:11.495Z,6.70
2023-01-09T20:26:40.632Z,6.70
2023-01-09T20:29:10.682Z,6.80
2023-01-09T20:31:37.939Z,6.80
2023-01-09T20:34:05.419Z,6.80
2023-01-09T20:36:32.891Z,6.80
2023-01-09T20:39:03.973Z,6.90
2023-01-09T20:41:31.608Z,6.90
2023-01-09T20:44:01.272Z,6.90
2023-01-09T20:46:31.874Z,6.90
2023-01-09T20:49:03.490Z,7.00
2023-01-09T20:51:31.259Z,7.00
2023-01-09T20:53:59.025Z,7.00
2023-01-09T20:56:30.876Z,7.10
2023-01-09T20:59:00.017Z,7.10
2023-01-09T21:01:28.113Z,7.10
2023-01-09T21:03:57.078Z,7.10
2023-01-09T21:06:26.085Z,7.00
2023-01-09T21:08:53.366Z,7.00
2023-01-09T21:11:22.146Z,7.00
2023-01-09T21:13:49.615Z,7.00
2023-01-09T21:16:21.429Z,7.00
2023-01-09T21:18:49.305Z,7.00
2023-01-09T21:21:23.969Z,6.90
2023-01-09T21:23:58.087Z,6.90
2023-01-09T21:26:28.285Z,6.90
2023-01-09T21:28:58.830Z,6.90
2023-01-09T21:31:35.187Z,6.90
2023-01-09T21:34:06.143Z,7.00
2023-01-09T21:36:35.407Z,6.90
2023-01-09T21:39:07.462Z,6.90
2023-01-09T21:41:54.222Z,6.90
2023-01-09T21:44:40.176Z,6.80
2023-01-09T21:47:07.398Z,6.80
2023-01-09T21:49:36.187Z,6.80
2023-01-09T21:52:04.764Z,6.80
2023-01-09T21:54:33.218Z,6.80
2023-01-09T21:57:04.382Z,6.80
2023-01-09T21:59:32.411Z,6.80
2023-01-09T22:02:00.990Z,6.80
2023-01-09T22:04:30.560Z,6.80
2023-01-09T22:06:58.024Z,6.80
2023-01-09T22:09:25.216Z,6.90
2023-01-09T22:11:55.112Z,6.90
2023-01-09T22:14:23.023Z,6.90
2023-01-09T22:16:50.314Z,6.80
2023-01-09T22:19:18.241Z,6.70
2023-01-09T22:21:46.328Z,6.70
2023-01-09T22:24:16.309Z,6.70
2023-01-09T22:26:43.666Z,6.60
2023-01-09T22:29:10.989Z,6.50
2023-01-09T22:31:40.081Z,6.50
2023-01-09T22:34:07.462Z,6.50
2023-01-09T22:36:34.652Z,6.40
2023-01-09T22:39:01.855Z,6.40
2023-01-09T22:41:30.598Z,6.40
2023-01-09T22:43:58.645Z,6.40
2023-01-09T22:46:26.337Z,6.30
2023-01-09T22:48:53.512Z,6.30
2023-01-09T22:51:21.858Z,6.30
2023-01-09T22:53:50.331Z,6.20
2023-01-09T22:56:20.460Z,6.30
2023-01-09T22:58:58.366Z,6.20
2023-01-09T23:01:25.699Z,6.20
2023-01-09T23:03:52.830Z,6.20
2023-01-09T23:06:22.775Z,6.20
2023-01-09T23:08:51.749Z,6.20
2023-01-09T23:11:48.785Z,6.10
2023-01-09T23:14:17.105Z,6.10
2023-01-09T23:16:44.451Z,6.10
2023-01-09T23:19:17.286Z,6.10
2023-01-09T23:21:45.582Z,6.10
2023-01-09T23:24:17.284Z,6.10
2023-01-09T23:26:45.012Z,6.10
2023-01-09T23:29:13.018Z,6.10
2023-01-09T23:31:40.089Z,6.10
2023-01-09T23:34:09.850Z,6.10
2023-01-09T23:36:36.989Z,6.10
2023-01-09T23:39:08.834Z,6.10
2023-01-09T23:41:59.776Z,6.20
2023-01-09T23:44:27.831Z,6.20
2023-01-09T23:46:55.099Z,6.20
2023-01-09T23:49:22.265Z,6.30
2023-01-09T23:51:49.931Z,6.30
2023-01-09T23:54:17.263Z,6.30
2023-01-09T23:56:44.854Z,6.20
2023-01-09T23:59:14.216Z,6.20
